createdAt,value
2017-12-17T00:00:34.936Z,95.9
2017-12-17T00:01:36.727Z,94.7
2017-12-17T00:02:38.542Z,94.6
2017-12-17T00:03:40.335Z,94.7
2017-12-17T00:04:42.157Z,94.7
2017-12-17T00:05:44.076Z,94.9
2017-12-17T00:06:45.912Z,95.9
2017-12-17T00:07:47.718Z,96.7
2017-12-17T00:08:49.497Z,96.8
2017-12-17T00:09:51.259Z,96.5
2017-12-17T00:10:53.050Z,95.7
2017-12-17T00:11:54.862Z,95.6
2017-12-17T00:12:56.662Z,95.5
2017-12-17T00:13:58.407Z,95.8
2017-12-17T00:15:00.205Z,95.5
2017-12-17T00:16:02.060Z,95.7
2017-12-17T00:17:03.969Z,96.0
2017-12-17T00:18:05.739Z,96.0
2017-12-17T00:19:07.535Z,96.3
2017-12-17T00:20:09.366Z,96.6
2017-12-17T00:21:11.168Z,96.9
2017-12-17T00:22:12.953Z,97.7
2017-12-17T00:23:14.759Z,97.3
2017-12-17T00:24:16.512Z,97.6
2017-12-17T00:25:18.344Z,97.5
2017-12-17T00:26:20.131Z,97.8
2017-12-17T00:27:21.940Z,97.3
2017-12-17T00:28:23.797Z,96.9
2017-12-17T00:29:25.638Z,98.4
2017-12-17T00:30:27.431Z,98.2
2017-12-17T00:31:29.336Z,99.1
2017-12-17T00:32:31.155Z,100.0
2017-12-17T00:33:33.778Z,100.0
2017-12-17T00:34:35.694Z,100.0
2017-12-17T00:35:37.458Z,98.6
2017-12-17T00:36:39.229Z,96.6
2017-12-17T00:37:41.010Z,94.2
2017-12-17T00:38:42.797Z,93.2
2017-12-17T00:39:44.573Z,93.0
2017-12-17T00:40:46.307Z,94.4
2017-12-17T00:41:48.091Z,94.6
2017-12-17T00:42:49.844Z,94.3
2017-12-17T00:43:51.625Z,94.5
2017-12-17T00:44:53.388Z,94.4
2017-12-17T00:45:55.145Z,94.2
2017-12-17T00:46:56.888Z,95.4
2017-12-17T00:47:58.708Z,95.8
2017-12-17T00:49:00.568Z,94.9
2017-12-17T00:50:02.378Z,94.9
2017-12-17T00:51:04.245Z,94.9
2017-12-17T00:52:06.059Z,94.9
2017-12-17T00:53:07.968Z,95.2
2017-12-17T00:54:09.788Z,94.5
2017-12-17T00:55:11.583Z,94.7
2017-12-17T00:56:13.321Z,94.5
2017-12-17T00:57:15.079Z,94.2
2017-12-17T00:58:16.907Z,95.1
2017-12-17T00:59:18.671Z,95.3
2017-12-17T01:00:20.451Z,95.4
2017-12-17T01:01:22.285Z,94.9
2017-12-17T01:02:24.107Z,94.7
2017-12-17T01:03:25.890Z,95.6
2017-12-17T01:04:27.735Z,94.8
2017-12-17T01:05:29.579Z,95.6
2017-12-17T01:06:31.416Z,95.7
2017-12-17T01:07:33.318Z,96.3
2017-12-17T01:08:35.211Z,96.3
2017-12-17T01:09:37.026Z,95.2
2017-12-17T01:10:38.925Z,95.6
2017-12-17T01:11:40.709Z,94.7
2017-12-17T01:12:42.494Z,95.0
2017-12-17T01:13:44.334Z,94.8
2017-12-17T01:14:46.114Z,95.5
2017-12-17T01:15:47.872Z,95.2
2017-12-17T01:16:49.720Z,96.7
2017-12-17T01:17:51.485Z,97.0
2017-12-17T01:18:53.260Z,97.5
2017-12-17T01:19:55.054Z,97.9
2017-12-17T01:20:56.847Z,98.4
2017-12-17T01:21:58.609Z,98.5
2017-12-17T01:23:00.421Z,97.8
2017-12-17T01:24:02.205Z,98.1
2017-12-17T01:25:03.960Z,98.2
2017-12-17T01:26:05.768Z,99.2
2017-12-17T01:27:07.606Z,99.1
2017-12-17T01:28:09.346Z,99.3
2017-12-17T01:29:11.126Z,100.0
2017-12-17T01:30:12.878Z,100.0
2017-12-17T01:31:14.618Z,100.0
2017-12-17T01:32:16.335Z,100.0
2017-12-17T01:33:18.078Z,100.0
2017-12-17T01:34:19.824Z,100.0
2017-12-17T01:35:21.607Z,100.0
2017-12-17T01:36:23.377Z,100.0
2017-12-17T01:37:25.230Z,100.0
2017-12-17T01:38:27.032Z,100.0
2017-12-17T01:39:28.863Z,100.0
2017-12-17T01:40:31.040Z,100.0
2017-12-17T01:41:32.762Z,100.0
2017-12-17T01:42:34.557Z,100.0
2017-12-17T01:43:36.289Z,100.0
2017-12-17T01:44:38.035Z,100.0
2017-12-17T01:45:39.772Z,100.0
2017-12-17T01:46:41.508Z,100.0
2017-12-17T01:47:43.231Z,100.0
2017-12-17T01:48:44.971Z,100.0
2017-12-17T01:49:46.681Z,100.0
2017-12-17T01:50:48.406Z,100.0
2017-12-17T01:51:50.122Z,100.0
2017-12-17T01:52:51.844Z,100.0
2017-12-17T01:53:53.560Z,100.0
2017-12-17T01:54:55.277Z,100.0
2017-12-17T01:55:57.020Z,100.0
2017-12-17T01:56:58.776Z,100.0
2017-12-17T01:58:00.495Z,100.0
2017-12-17T01:59:02.227Z,100.0
2017-12-17T02:00:03.929Z,100.0
2017-12-17T02:01:05.667Z,100.0
2017-12-17T02:02:07.610Z,100.0
2017-12-17T02:03:09.327Z,100.0
2017-12-17T02:04:11.052Z,100.0
2017-12-17T02:05:12.794Z,100.0
2017-12-17T02:06:14.523Z,100.0
2017-12-17T02:07:16.243Z,100.0
2017-12-17T02:08:17.972Z,100.0
2017-12-17T02:09:19.692Z,100.0
2017-12-17T02:10:21.413Z,100.0
2017-12-17T02:11:23.156Z,100.0
2017-12-17T02:12:24.981Z,100.0
2017-12-17T02:13:26.709Z,100.0
2017-12-17T02:14:28.425Z,100.0
2017-12-17T02:15:30.177Z,100.0
2017-12-17T02:16:31.930Z,100.0
2017-12-17T02:17:33.652Z,100.0
2017-12-17T02:18:35.382Z,100.0
2017-12-17T02:19:37.157Z,100.0
2017-12-17T02:20:38.904Z,100.0
2017-12-17T02:21:40.588Z,100.0
2017-12-17T02:22:42.306Z,100.0
2017-12-17T02:23:44.046Z,100.0
2017-12-17T02:24:45.772Z,100.0
2017-12-17T02:25:47.505Z,100.0
2017-12-17T02:26:49.234Z,100.0
2017-12-17T02:27:50.984Z,100.0
2017-12-17T02:28:52.717Z,100.0
2017-12-17T02:29:54.457Z,100.0
2017-12-17T02:30:56.202Z,100.0
2017-12-17T02:31:57.925Z,100.0
2017-12-17T02:32:59.652Z,100.0
2017-12-17T02:34:01.384Z,100.0
2017-12-17T02:35:03.140Z,100.0
2017-12-17T02:36:04.891Z,100.0
2017-12-17T02:37:06.627Z,100.0
2017-12-17T02:38:08.356Z,100.0
2017-12-17T02:39:10.093Z,100.0
2017-12-17T02:40:11.845Z,100.0
2017-12-17T02:41:13.564Z,100.0
2017-12-17T02:42:15.308Z,100.0
2017-12-17T02:43:17.048Z,100.0
2017-12-17T02:44:18.767Z,100.0
2017-12-17T02:45:20.541Z,100.0
2017-12-17T02:46:22.283Z,100.0
2017-12-17T02:47:24.024Z,100.0
2017-12-17T02:48:25.857Z,100.0
2017-12-17T02:49:27.590Z,100.0
2017-12-17T02:50:29.311Z,100.0
2017-12-17T02:51:31.102Z,100.0
2017-12-17T02:52:32.826Z,100.0
2017-12-17T02:53:34.559Z,100.0
2017-12-17T02:54:36.298Z,100.0
2017-12-17T02:55:38.070Z,100.0
2017-12-17T02:56:39.812Z,100.0
2017-12-17T02:57:41.561Z,100.0
2017-12-17T02:58:43.345Z,100.0
2017-12-17T02:59:45.086Z,100.0
2017-12-17T03:00:46.871Z,100.0
2017-12-17T03:01:48.610Z,100.0
2017-12-17T03:02:50.369Z,100.0
2017-12-17T03:03:52.106Z,100.0
2017-12-17T03:04:53.827Z,100.0
2017-12-17T03:05:55.584Z,100.0
2017-12-17T03:06:57.356Z,100.0
2017-12-17T03:07:59.108Z,100.0
2017-12-17T03:09:00.849Z,100.0
2017-12-17T03:10:02.613Z,100.0
2017-12-17T03:11:04.403Z,100.0
2017-12-17T03:12:06.171Z,100.0
2017-12-17T03:13:07.903Z,100.0
2017-12-17T03:14:09.648Z,100.0
2017-12-17T03:15:11.401Z,100.0
2017-12-17T03:16:13.131Z,100.0
2017-12-17T03:17:14.882Z,100.0
2017-12-17T03:18:16.626Z,100.0
2017-12-17T03:19:18.359Z,100.0
2017-12-17T03:20:20.111Z,100.0
2017-12-17T03:21:21.882Z,100.0
2017-12-17T03:22:23.701Z,100.0
2017-12-17T03:23:25.465Z,100.0
2017-12-17T03:24:27.212Z,100.0
2017-12-17T03:25:29.006Z,100.0
2017-12-17T03:26:30.768Z,100.0
2017-12-17T03:27:32.576Z,100.0
2017-12-17T03:28:34.365Z,100.0
2017-12-17T03:29:36.136Z,100.0
2017-12-17T03:30:37.902Z,100.0
2017-12-17T03:31:39.727Z,100.0
2017-12-17T03:32:41.558Z,100.0
2017-12-17T03:33:43.352Z,100.0
2017-12-17T03:34:45.207Z,100.0
2017-12-17T03:35:46.990Z,100.0
2017-12-17T03:36:48.714Z,100.0
2017-12-17T03:37:50.459Z,100.0
2017-12-17T03:38:52.250Z,100.0
2017-12-17T03:39:54.045Z,100.0
2017-12-17T03:40:55.800Z,100.0
2017-12-17T03:41:57.553Z,100.0
2017-12-17T03:42:59.341Z,100.0
2017-12-17T03:44:01.120Z,100.0
2017-12-17T03:45:02.908Z,100.0
2017-12-17T03:46:04.620Z,100.0
2017-12-17T03:47:06.390Z,100.0
2017-12-17T03:48:08.138Z,100.0
2017-12-17T03:49:09.880Z,100.0
2017-12-17T03:50:11.628Z,100.0
2017-12-17T03:51:13.364Z,100.0
2017-12-17T03:52:15.103Z,100.0
2017-12-17T03:53:16.810Z,100.0
2017-12-17T03:54:18.568Z,100.0
2017-12-17T03:55:20.292Z,100.0
2017-12-17T03:56:22.016Z,100.0
2017-12-17T03:57:23.770Z,100.0
2017-12-17T03:58:25.519Z,100.0
2017-12-17T03:59:27.246Z,100.0
2017-12-17T04:00:28.989Z,100.0
2017-12-17T04:01:30.724Z,100.0
2017-12-17T04:02:32.513Z,100.0
2017-12-17T04:03:34.276Z,100.0
2017-12-17T04:04:36.005Z,100.0
2017-12-17T04:05:37.734Z,100.0
2017-12-17T04:06:39.495Z,100.0
2017-12-17T04:07:41.263Z,100.0
2017-12-17T04:08:43.003Z,100.0
2017-12-17T04:09:44.752Z,100.0
2017-12-17T04:10:46.471Z,100.0
2017-12-17T04:11:48.246Z,100.0
2017-12-17T04:12:49.984Z,100.0
2017-12-17T04:13:51.684Z,100.0
2017-12-17T04:14:53.433Z,100.0
2017-12-17T04:15:55.166Z,100.0
2017-12-17T04:16:56.888Z,100.0
2017-12-17T04:17:58.604Z,100.0
2017-12-17T04:19:00.352Z,100.0
2017-12-17T04:20:02.075Z,100.0
2017-12-17T04:21:03.840Z,100.0
2017-12-17T04:22:05.566Z,100.0
2017-12-17T04:23:07.277Z,100.0
2017-12-17T04:24:09.017Z,100.0
2017-12-17T04:25:10.771Z,100.0
2017-12-17T04:26:12.509Z,100.0
2017-12-17T04:27:14.243Z,100.0
2017-12-17T04:28:15.974Z,100.0
2017-12-17T04:29:17.709Z,100.0
2017-12-17T04:30:19.425Z,100.0
2017-12-17T04:31:21.137Z,100.0
2017-12-17T04:32:22.898Z,100.0
2017-12-17T04:33:24.647Z,100.0
2017-12-17T04:34:26.406Z,100.0
2017-12-17T04:35:28.363Z,100.0
2017-12-17T04:36:30.114Z,100.0
2017-12-17T04:37:31.831Z,100.0
2017-12-17T04:38:33.564Z,100.0
2017-12-17T04:39:35.285Z,100.0
2017-12-17T04:40:37.043Z,100.0
2017-12-17T04:41:38.792Z,100.0
2017-12-17T04:42:40.564Z,100.0
2017-12-17T04:43:42.359Z,100.0
2017-12-17T04:44:44.090Z,100.0
2017-12-17T04:45:45.829Z,100.0
2017-12-17T04:46:47.565Z,100.0
2017-12-17T04:47:49.334Z,100.0
2017-12-17T04:48:51.055Z,100.0
2017-12-17T04:49:52.802Z,100.0
2017-12-17T04:50:54.536Z,100.0
2017-12-17T04:51:56.271Z,100.0
2017-12-17T04:52:58.019Z,100.0
2017-12-17T04:53:59.738Z,100.0
2017-12-17T04:55:01.448Z,100.0
2017-12-17T04:56:03.216Z,100.0
2017-12-17T04:57:04.965Z,100.0
2017-12-17T04:58:06.709Z,100.0
2017-12-17T04:59:08.453Z,100.0
2017-12-17T05:00:10.183Z,100.0
2017-12-17T05:01:11.895Z,100.0
2017-12-17T05:02:13.667Z,100.0
2017-12-17T05:03:15.474Z,100.0
2017-12-17T05:04:17.205Z,100.0
2017-12-17T05:05:18.979Z,100.0
2017-12-17T05:06:20.754Z,100.0
2017-12-17T05:07:22.590Z,100.0
2017-12-17T05:08:24.328Z,100.0
2017-12-17T05:09:26.088Z,100.0
2017-12-17T05:10:27.867Z,100.0
2017-12-17T05:11:29.582Z,100.0
2017-12-17T05:12:31.323Z,100.0
2017-12-17T05:13:33.037Z,100.0
2017-12-17T05:14:34.783Z,100.0
2017-12-17T05:15:36.533Z,100.0
2017-12-17T05:16:38.291Z,100.0
2017-12-17T05:17:40.025Z,100.0
2017-12-17T05:18:41.795Z,100.0
2017-12-17T05:19:43.554Z,100.0
2017-12-17T05:20:45.291Z,100.0
2017-12-17T05:21:47.059Z,100.0
2017-12-17T05:22:48.781Z,100.0
2017-12-17T05:23:50.501Z,100.0
2017-12-17T05:24:52.238Z,100.0
2017-12-17T05:25:53.993Z,100.0
2017-12-17T05:26:55.714Z,100.0
2017-12-17T05:27:57.457Z,100.0
2017-12-17T05:28:59.208Z,100.0
2017-12-17T05:30:00.985Z,100.0
2017-12-17T05:31:02.727Z,100.0
2017-12-17T05:32:04.454Z,100.0
2017-12-17T05:33:06.204Z,100.0
2017-12-17T05:34:07.947Z,100.0
2017-12-17T05:35:09.660Z,100.0
2017-12-17T05:36:11.396Z,100.0
2017-12-17T05:37:13.140Z,100.0
2017-12-17T05:38:14.882Z,100.0
2017-12-17T05:39:16.648Z,100.0
2017-12-17T05:40:18.392Z,100.0
2017-12-17T05:41:20.165Z,100.0
2017-12-17T05:42:21.890Z,100.0
2017-12-17T05:43:23.616Z,100.0
2017-12-17T05:44:25.383Z,100.0
2017-12-17T05:45:27.180Z,100.0
2017-12-17T05:46:28.890Z,100.0
2017-12-17T05:47:30.672Z,100.0
2017-12-17T05:48:32.446Z,100.0
2017-12-17T05:49:34.263Z,100.0
2017-12-17T05:50:36.019Z,100.0
2017-12-17T05:51:37.766Z,100.0
2017-12-17T05:52:39.533Z,100.0
2017-12-17T05:53:41.301Z,100.0
2017-12-17T05:54:43.032Z,100.0
2017-12-17T05:55:44.815Z,100.0
2017-12-17T05:56:46.608Z,100.0
2017-12-17T05:57:48.349Z,100.0
2017-12-17T05:58:50.080Z,100.0
2017-12-17T05:59:51.828Z,100.0
2017-12-17T06:00:53.567Z,100.0
2017-12-17T06:01:55.317Z,100.0
2017-12-17T06:02:57.034Z,100.0
2017-12-17T06:03:58.777Z,100.0
2017-12-17T06:05:00.499Z,100.0
2017-12-17T06:06:02.305Z,100.0
2017-12-17T06:07:04.054Z,100.0
2017-12-17T06:08:05.796Z,100.0
2017-12-17T06:09:07.520Z,100.0
2017-12-17T06:10:09.255Z,100.0
2017-12-17T06:11:10.994Z,100.0
2017-12-17T06:12:12.722Z,100.0
2017-12-17T06:13:14.429Z,100.0
2017-12-17T06:14:16.175Z,100.0
2017-12-17T06:15:17.927Z,100.0
2017-12-17T06:16:19.644Z,100.0
2017-12-17T06:17:21.377Z,100.0
2017-12-17T06:18:23.113Z,100.0
2017-12-17T06:19:24.873Z,100.0
2017-12-17T06:20:26.607Z,100.0
2017-12-17T06:21:28.397Z,100.0
2017-12-17T06:22:30.128Z,100.0
2017-12-17T06:23:31.871Z,100.0
2017-12-17T06:24:33.591Z,100.0
2017-12-17T06:25:35.340Z,100.0
2017-12-17T06:26:37.056Z,100.0
2017-12-17T06:27:38.777Z,100.0
2017-12-17T06:28:40.502Z,100.0
2017-12-17T06:29:42.273Z,100.0
2017-12-17T06:30:44.024Z,100.0
2017-12-17T06:31:45.779Z,100.0
2017-12-17T06:32:47.572Z,100.0
2017-12-17T06:33:49.335Z,100.0
2017-12-17T06:34:51.043Z,100.0
2017-12-17T06:35:52.807Z,100.0
2017-12-17T06:36:54.524Z,100.0
2017-12-17T06:37:56.256Z,100.0
2017-12-17T06:38:57.986Z,100.0
2017-12-17T06:39:59.764Z,100.0
2017-12-17T06:41:01.483Z,100.0
2017-12-17T06:42:03.228Z,100.0
2017-12-17T06:43:04.973Z,100.0
2017-12-17T06:44:06.715Z,100.0
2017-12-17T06:45:08.440Z,100.0
2017-12-17T06:46:10.147Z,100.0
2017-12-17T06:47:11.869Z,100.0
2017-12-17T06:48:13.611Z,100.0
2017-12-17T06:49:15.328Z,100.0
2017-12-17T06:50:17.058Z,100.0
2017-12-17T06:51:18.789Z,100.0
2017-12-17T06:52:20.566Z,100.0
2017-12-17T06:53:22.308Z,100.0
2017-12-17T06:54:24.040Z,100.0
2017-12-17T06:55:25.771Z,100.0
2017-12-17T06:56:27.505Z,100.0
2017-12-17T06:57:29.247Z,100.0
2017-12-17T06:58:30.971Z,100.0
2017-12-17T06:59:32.714Z,100.0
2017-12-17T07:00:34.467Z,100.0
2017-12-17T07:01:36.225Z,100.0
2017-12-17T07:02:37.932Z,100.0
2017-12-17T07:03:39.658Z,100.0
2017-12-17T07:04:41.408Z,100.0
2017-12-17T07:05:43.137Z,100.0
2017-12-17T07:06:44.888Z,100.0
2017-12-17T07:07:46.623Z,100.0
2017-12-17T07:08:48.469Z,100.0
2017-12-17T07:09:50.182Z,100.0
2017-12-17T07:10:52.680Z,100.0
2017-12-17T07:11:54.426Z,100.0
2017-12-17T07:12:56.219Z,100.0
2017-12-17T07:13:58.004Z,100.0
2017-12-17T07:14:59.816Z,100.0
2017-12-17T07:16:01.702Z,100.0
2017-12-17T07:17:03.455Z,100.0
2017-12-17T07:18:05.230Z,100.0
2017-12-17T07:19:07.014Z,100.0
2017-12-17T07:20:08.771Z,100.0
2017-12-17T07:21:10.511Z,100.0
2017-12-17T07:22:12.257Z,100.0
2017-12-17T07:23:13.965Z,100.0
2017-12-17T07:24:15.674Z,100.0
2017-12-17T07:25:17.527Z,100.0
2017-12-17T07:26:19.258Z,100.0
2017-12-17T07:27:21.033Z,100.0
2017-12-17T07:28:22.854Z,100.0
2017-12-17T07:29:24.606Z,100.0
2017-12-17T07:30:26.377Z,100.0
2017-12-17T07:31:28.103Z,100.0
2017-12-17T07:32:29.907Z,100.0
2017-12-17T07:33:31.638Z,100.0
2017-12-17T07:34:33.368Z,100.0
2017-12-17T07:35:35.104Z,100.0
2017-12-17T07:36:36.857Z,100.0
2017-12-17T07:37:38.589Z,100.0
2017-12-17T07:38:40.328Z,100.0
2017-12-17T07:39:42.054Z,100.0
2017-12-17T07:40:43.776Z,100.0
2017-12-17T07:41:45.513Z,100.0
2017-12-17T07:42:47.272Z,100.0
2017-12-17T07:43:49.005Z,100.0
2017-12-17T07:44:50.727Z,100.0
2017-12-17T07:45:52.488Z,100.0
2017-12-17T07:46:54.207Z,100.0
2017-12-17T07:47:55.957Z,100.0
2017-12-17T07:48:57.684Z,100.0
2017-12-17T07:49:59.427Z,100.0
2017-12-17T07:51:01.201Z,100.0
2017-12-17T07:52:03.086Z,100.0
2017-12-17T07:53:04.979Z,100.0
2017-12-17T07:54:06.700Z,100.0
2017-12-17T07:55:08.646Z,100.0
2017-12-17T07:56:10.611Z,100.0
2017-12-17T07:57:12.320Z,100.0
2017-12-17T07:58:14.085Z,100.0
2017-12-17T07:59:15.826Z,100.0
2017-12-17T08:00:17.598Z,100.0
2017-12-17T08:01:19.475Z,100.0
2017-12-17T08:02:21.192Z,100.0
2017-12-17T08:03:22.926Z,100.0
2017-12-17T08:04:24.660Z,100.0
2017-12-17T08:05:26.351Z,100.0
2017-12-17T08:06:28.337Z,100.0
2017-12-17T08:07:30.226Z,100.0
2017-12-17T08:08:31.954Z,100.0
2017-12-17T08:09:33.672Z,100.0
2017-12-17T08:10:35.390Z,100.0
2017-12-17T08:11:37.097Z,100.0
2017-12-17T08:12:38.839Z,100.0
2017-12-17T08:13:40.584Z,100.0
2017-12-17T08:14:42.313Z,100.0
2017-12-17T08:15:44.039Z,100.0
2017-12-17T08:16:45.757Z,100.0
2017-12-17T08:17:47.480Z,100.0
2017-12-17T08:18:49.190Z,100.0
2017-12-17T08:19:50.908Z,100.0
2017-12-17T08:20:52.648Z,100.0
2017-12-17T08:21:54.398Z,100.0
2017-12-17T08:22:56.140Z,100.0
2017-12-17T08:23:58.043Z,100.0
2017-12-17T08:24:59.794Z,100.0
2017-12-17T08:26:01.562Z,100.0
2017-12-17T08:27:03.373Z,100.0
2017-12-17T08:28:05.094Z,100.0
2017-12-17T08:29:06.916Z,100.0
2017-12-17T08:30:10.712Z,100.0
2017-12-17T08:31:13.332Z,100.0
2017-12-17T08:32:15.138Z,100.0
2017-12-17T08:33:17.080Z,100.0
2017-12-17T08:34:19.078Z,100.0
2017-12-17T08:35:20.948Z,100.0
2017-12-17T08:36:22.964Z,100.0
2017-12-17T08:37:24.817Z,100.0
2017-12-17T08:38:26.837Z,100.0
2017-12-17T08:39:28.827Z,100.0
2017-12-17T08:40:30.780Z,100.0
2017-12-17T08:41:32.668Z,100.0
2017-12-17T08:42:34.556Z,100.0
2017-12-17T08:43:36.380Z,100.0
2017-12-17T08:45:22.188Z,100.0
2017-12-17T08:46:24.081Z,100.0
2017-12-17T08:47:26.140Z,100.0
2017-12-17T08:48:28.061Z,100.0
2017-12-17T08:49:29.996Z,100.0
2017-12-17T08:50:32.010Z,100.0
2017-12-17T08:51:34.038Z,100.0
2017-12-17T08:52:35.953Z,100.0
2017-12-17T08:53:37.995Z,100.0
2017-12-17T08:54:39.834Z,100.0
2017-12-17T08:55:41.680Z,100.0
2017-12-17T08:56:43.865Z,100.0
2017-12-17T08:57:45.703Z,100.0
2017-12-17T08:58:47.574Z,100.0
2017-12-17T08:59:49.430Z,100.0
2017-12-17T09:00:51.173Z,100.0
2017-12-17T09:01:52.934Z,100.0
2017-12-17T09:02:54.764Z,100.0
2017-12-17T09:04:11.073Z,100.0
2017-12-17T09:05:38.964Z,100.0
2017-12-17T09:06:44.181Z,100.0
2017-12-17T09:07:45.930Z,100.0
2017-12-17T09:08:48.134Z,100.0
2017-12-17T09:09:50.046Z,100.0
2017-12-17T09:10:52.614Z,100.0
2017-12-17T09:11:54.443Z,100.0
2017-12-17T09:12:56.229Z,100.0
2017-12-17T09:13:57.937Z,100.0
2017-12-17T09:14:59.875Z,100.0
2017-12-17T09:16:01.743Z,100.0
2017-12-17T09:17:03.618Z,100.0
2017-12-17T09:18:05.354Z,100.0
2017-12-17T09:19:10.054Z,100.0
2017-12-17T09:20:13.513Z,100.0
2017-12-17T09:21:15.290Z,100.0
2017-12-17T09:22:17.023Z,100.0
2017-12-17T09:23:18.743Z,100.0
2017-12-17T09:24:20.470Z,100.0
2017-12-17T09:25:22.219Z,100.0
2017-12-17T09:26:23.977Z,100.0
2017-12-17T09:27:25.695Z,100.0
2017-12-17T09:28:27.546Z,100.0
2017-12-17T09:29:29.262Z,100.0
2017-12-17T09:30:31.080Z,100.0
2017-12-17T09:31:32.937Z,100.0
2017-12-17T09:32:34.662Z,100.0
2017-12-17T09:33:36.466Z,100.0
2017-12-17T09:34:38.369Z,100.0
2017-12-17T09:35:40.128Z,100.0
2017-12-17T09:36:42.892Z,100.0
2017-12-17T09:37:44.811Z,100.0
2017-12-17T09:38:46.550Z,100.0
2017-12-17T09:39:48.373Z,98.7
2017-12-17T09:40:50.106Z,96.7
2017-12-17T09:41:51.832Z,91.9
2017-12-17T09:42:53.568Z,85.5
2017-12-17T09:43:55.307Z,78.9
2017-12-17T09:44:57.056Z,74.3
2017-12-17T09:45:58.833Z,68.9
2017-12-17T09:47:00.564Z,65.7
2017-12-17T09:48:02.300Z,62.6
2017-12-17T09:49:04.152Z,62.0
2017-12-17T09:50:05.901Z,60.9
2017-12-17T09:51:07.666Z,59.5
2017-12-17T09:52:09.394Z,58.2
2017-12-17T09:53:11.155Z,56.3
2017-12-17T09:54:12.898Z,61.0
2017-12-17T09:55:14.643Z,62.6
2017-12-17T09:56:16.385Z,61.9
2017-12-17T09:57:18.141Z,59.4
2017-12-17T09:58:19.890Z,56.6
2017-12-17T09:59:21.650Z,55.2
2017-12-17T10:00:23.507Z,55.0
2017-12-17T10:01:25.236Z,53.7
2017-12-17T10:02:26.981Z,53.1
2017-12-17T10:03:29.153Z,53.4
2017-12-17T10:04:30.976Z,53.0
2017-12-17T10:05:32.712Z,51.9
2017-12-17T10:06:34.436Z,53.2
2017-12-17T10:07:37.153Z,54.1
2017-12-17T10:08:38.946Z,55.2
2017-12-17T10:09:40.708Z,54.7
2017-12-17T10:10:42.480Z,53.4
2017-12-17T10:11:44.250Z,53.1
2017-12-17T10:12:47.115Z,52.6
2017-12-17T10:13:48.871Z,51.5
2017-12-17T10:14:50.597Z,50.9
2017-12-17T10:15:52.755Z,51.9
2017-12-17T10:16:54.578Z,51.7
2017-12-17T10:17:56.667Z,52.4
2017-12-17T10:18:58.411Z,51.9
2017-12-17T10:20:00.300Z,49.7
2017-12-17T10:21:02.059Z,48.6
2017-12-17T10:22:03.781Z,46.9
2017-12-17T10:23:05.633Z,46.5
2017-12-17T10:24:09.467Z,46.9
2017-12-17T10:25:11.240Z,46.3
2017-12-17T10:26:14.980Z,47.9
2017-12-17T10:27:17.206Z,45.4
2017-12-17T10:28:19.736Z,46.8
2017-12-17T10:29:21.461Z,46.4
2017-12-17T10:30:23.250Z,45.5
2017-12-17T10:31:25.108Z,45.4
2017-12-17T10:32:26.842Z,46.7
2017-12-17T10:33:28.574Z,46.5
2017-12-17T10:34:30.290Z,46.0
2017-12-17T10:35:32.036Z,47.7
2017-12-17T10:36:33.766Z,47.9
2017-12-17T10:37:35.485Z,46.1
2017-12-17T10:38:37.232Z,43.7
2017-12-17T10:39:39.150Z,43.1
2017-12-17T10:40:40.897Z,42.5
2017-12-17T10:41:42.637Z,43.5
2017-12-17T10:42:44.362Z,42.1
2017-12-17T10:43:46.102Z,40.9
2017-12-17T10:44:47.863Z,39.9
2017-12-17T10:45:49.630Z,39.3
2017-12-17T10:46:51.398Z,40.4
2017-12-17T10:47:53.175Z,41.6
2017-12-17T10:48:54.962Z,42.1
2017-12-17T10:49:56.720Z,45.1
2017-12-17T10:50:58.466Z,45.3
2017-12-17T10:52:00.234Z,44.3
2017-12-17T10:53:01.971Z,42.8
2017-12-17T10:54:03.800Z,41.4
2017-12-17T10:55:05.549Z,41.5
2017-12-17T10:56:07.294Z,42.3
2017-12-17T10:57:09.025Z,44.2
2017-12-17T10:58:10.787Z,43.9
2017-12-17T10:59:12.534Z,42.5
2017-12-17T11:00:14.355Z,41.2
2017-12-17T11:01:16.140Z,39.8
2017-12-17T11:02:17.889Z,39.4
2017-12-17T11:03:19.652Z,40.1
2017-12-17T11:04:21.811Z,41.8
2017-12-17T11:05:23.544Z,40.5
2017-12-17T11:06:25.293Z,42.9
2017-12-17T11:07:27.041Z,45.2
2017-12-17T11:08:28.790Z,44.5
2017-12-17T11:09:30.552Z,45.6
2017-12-17T11:10:32.309Z,45.8
2017-12-17T11:11:34.064Z,43.8
2017-12-17T11:12:35.875Z,44.3
2017-12-17T11:13:37.585Z,46.4
2017-12-17T11:14:39.335Z,46.7
2017-12-17T11:15:41.095Z,46.1
2017-12-17T11:16:42.864Z,44.6
2017-12-17T11:17:44.699Z,41.6
2017-12-17T11:18:46.440Z,40.3
2017-12-17T11:19:48.192Z,39.6
2017-12-17T11:20:49.917Z,40.4
2017-12-17T11:21:51.633Z,43.9
2017-12-17T11:22:53.362Z,43.5
2017-12-17T11:23:55.098Z,44.3
2017-12-17T11:24:56.847Z,44.2
2017-12-17T11:25:58.565Z,41.5
2017-12-17T11:27:00.304Z,40.5
2017-12-17T11:28:02.107Z,40.1
2017-12-17T11:29:03.846Z,42.1
2017-12-17T11:30:05.605Z,40.1
2017-12-17T11:31:07.411Z,38.4
2017-12-17T11:32:09.148Z,37.4
2017-12-17T11:33:10.882Z,37.4
2017-12-17T11:34:12.647Z,36.9
2017-12-17T11:35:14.402Z,37.9
2017-12-17T11:36:16.156Z,38.2
2017-12-17T11:37:17.889Z,37.7
2017-12-17T11:38:19.653Z,38.2
2017-12-17T11:39:21.406Z,38.1
2017-12-17T11:40:23.154Z,38.3
2017-12-17T11:41:24.900Z,38.4
2017-12-17T11:42:26.671Z,38.2
2017-12-17T11:43:28.392Z,38.3
2017-12-17T11:44:30.163Z,40.3
2017-12-17T11:45:32.031Z,40.0
2017-12-17T11:46:33.770Z,40.1
2017-12-17T11:47:35.507Z,41.5
2017-12-17T11:48:37.305Z,39.7
2017-12-17T11:49:39.024Z,41.5
2017-12-17T11:50:40.772Z,41.4
2017-12-17T11:51:42.568Z,40.9
2017-12-17T11:52:44.318Z,43.7
2017-12-17T11:53:46.058Z,42.2
2017-12-17T11:54:47.784Z,41.8
2017-12-17T11:55:49.537Z,42.2
2017-12-17T11:56:51.272Z,43.1
2017-12-17T11:57:53.006Z,43.8
2017-12-17T11:58:54.770Z,43.2
2017-12-17T11:59:56.506Z,42.2
2017-12-17T12:00:58.248Z,40.6
2017-12-17T12:01:59.993Z,40.1
2017-12-17T12:03:01.749Z,39.7
2017-12-17T12:04:03.543Z,41.1
2017-12-17T12:05:05.298Z,43.5
2017-12-17T12:06:07.040Z,46.0
2017-12-17T12:07:08.828Z,46.2
2017-12-17T12:08:10.614Z,45.3
2017-12-17T12:09:15.883Z,46.0
2017-12-17T12:10:17.569Z,47.1
2017-12-17T12:11:19.335Z,46.3
2017-12-17T12:12:21.127Z,45.5
2017-12-17T12:13:22.903Z,46.0
2017-12-17T12:14:24.694Z,46.0
2017-12-17T12:15:26.587Z,44.2
2017-12-17T12:16:28.766Z,42.4
2017-12-17T12:17:30.544Z,42.3
2017-12-17T12:18:32.430Z,43.9
2017-12-17T12:19:34.151Z,45.8
2017-12-17T12:20:35.905Z,46.1
2017-12-17T12:21:38.771Z,46.0
2017-12-17T12:22:40.536Z,44.8
2017-12-17T12:23:42.306Z,44.4
2017-12-17T12:24:44.289Z,44.2
2017-12-17T12:25:46.051Z,43.7
2017-12-17T12:26:47.798Z,42.7
2017-12-17T12:27:49.578Z,42.1
2017-12-17T12:28:51.412Z,41.9
2017-12-17T12:29:53.489Z,43.0
2017-12-17T12:30:55.257Z,42.7
2017-12-17T12:31:57.050Z,42.0
2017-12-17T12:32:59.375Z,42.5
2017-12-17T12:34:01.361Z,41.7
2017-12-17T12:35:03.174Z,41.5
2017-12-17T12:36:05.001Z,41.6
2017-12-17T12:37:09.969Z,43.5
2017-12-17T12:38:11.723Z,45.5
2017-12-17T12:39:13.529Z,46.5
2017-12-17T12:40:15.801Z,47.6
2017-12-17T12:41:17.668Z,47.7
2017-12-17T12:42:19.462Z,48.3
2017-12-17T12:43:21.211Z,49.2
2017-12-17T12:44:23.080Z,49.3
2017-12-17T12:45:24.920Z,49.3
2017-12-17T12:46:26.743Z,49.2
2017-12-17T12:47:28.525Z,47.7
2017-12-17T12:48:30.434Z,47.0
2017-12-17T12:49:32.267Z,47.3
2017-12-17T12:50:34.078Z,46.7
2017-12-17T12:51:35.900Z,46.9
2017-12-17T12:52:37.640Z,47.5
2017-12-17T12:53:39.411Z,49.0
2017-12-17T12:54:41.160Z,49.2
2017-12-17T12:55:42.918Z,48.5
2017-12-17T12:56:44.671Z,47.9
2017-12-17T12:57:46.482Z,46.6
2017-12-17T12:58:48.241Z,45.8
2017-12-17T12:59:50.168Z,45.8
2017-12-17T13:00:51.968Z,46.4
2017-12-17T13:01:53.720Z,46.1
2017-12-17T13:02:55.682Z,47.0
2017-12-17T13:03:57.428Z,46.0
2017-12-17T13:04:59.159Z,45.3
2017-12-17T13:06:00.934Z,45.8
2017-12-17T13:07:02.692Z,45.4
2017-12-17T13:08:04.540Z,45.8
2017-12-17T13:09:08.791Z,45.2
2017-12-17T13:10:10.870Z,46.1
2017-12-17T13:11:12.627Z,46.6
2017-12-17T13:12:17.687Z,48.4
2017-12-17T13:13:20.119Z,51.0
2017-12-17T13:14:23.103Z,52.3
2017-12-17T13:15:26.975Z,52.5
2017-12-17T13:16:30.434Z,52.6
2017-12-17T13:17:32.231Z,52.6
2017-12-17T13:18:34.074Z,51.8
2017-12-17T13:19:35.833Z,52.0
2017-12-17T13:20:37.610Z,51.6
2017-12-17T13:21:39.449Z,52.1
2017-12-17T13:22:41.316Z,51.4
2017-12-17T13:23:43.117Z,51.0
2017-12-17T13:24:44.904Z,51.5
2017-12-17T13:25:46.685Z,51.4
2017-12-17T13:26:48.448Z,51.7
2017-12-17T13:27:50.229Z,52.0